This is the latest recevied weather packets stored in our database for station/object RJTY. If no packets are shown the sender has not sent any weather packets the latest 10 day(s).
| Time | Temp. | Humidity | Pressure | Rain* | Wind** | Luminosity | Snow |
|---|---|---|---|---|---|---|---|
| 1777688033 | 26.67° C | - | 1006.1 hPa | - | - | - | - |
| 1777687430 | 26.67° C | - | 1006.1 hPa | - | - | - | - |
| 1777686833 | 25.56° C | - | 1005.4 hPa | - | - | - | - |
| 1777686231 | 25.56° C | - | 1005.4 hPa | - | - | - | - |
| 1777685631 | 25.56° C | - | 1005.4 hPa | - | - | - | - |
| 1777685031 | 23.89° C | 31% | 1005.4 hPa | - | - | - | - |
| 1777684427 | 22.78° C | 38% | 1005.8 hPa | - | - | - | - |
| 1777683828 | 22.78° C | 38% | 1005.8 hPa | - | - | - | - |
| 1777683229 | 22.78° C | 40% | 1005.4 hPa | - | - | - | - |
| 1777682627 | 21.67° C | 37% | 1005.1 hPa | - | - | - | - |
| 1777682029 | 21.67° C | 37% | 1005.1 hPa | - | - | - | - |
| 1777681431 | 21.67° C | 37% | 1005.1 hPa | - | - | - | - |
| 1777680828 | 21.67° C | 37% | 1005.1 hPa | - | - | - | - |
| 1777680232 | 21.67° C | 37% | 1005.1 hPa | - | - | - | - |
| 1777679630 | 20° C | 49% | 1004.4 hPa | - | - | - | - |
| 1777679031 | 20° C | 49% | 1004.4 hPa | - | - | - | - |
| 1777678429 | 20° C | 49% | 1004.4 hPa | - | - | - | - |
| 1777677831 | 20° C | 49% | 1004.4 hPa | - | - | - | - |
| 1777677231 | 20° C | 49% | 1004.4 hPa | - | - | - | - |
| 1777676628 | 15.56° C | 63% | 1003.4 hPa | - | - | - | - |
| 1777676031 | 15.56° C | 63% | 1003.4 hPa | - | - | - | - |
| 1777675427 | 15.56° C | 63% | 1003.4 hPa | - | - | - | - |
| 1777674830 | 15.56° C | 63% | 1003.4 hPa | - | - | - | - |
| 1777674231 | 15.56° C | 63% | 1003.4 hPa | - | - | - | - |
| 1777673629 | 15.56° C | 63% | 1003.4 hPa | - | - | - | - |
* Rain since midnight (hover to see other rain measurements)
** Current wind speed in m/s (hover to see current wind gust speed)